Three Point, Kentucky
Current Conditions -  °F | °C
As of 11:55 AM on Thursday 30 Oct 2014 (Local Time) from K0VG Reporting Station
Clear Clear  
Wind Chill: 52°   Ceiling: Unl
Heat Index: 52°   Visibility: 10mi
Dew Point: 39°   Wind: 0mph
Humidity: 62%   Direction: NA
Pressure: 30.13"   Gusts: NA
Location:  36.7504°N, 83.2691°W
Report Text: K0VG 301555Z AUTO 00000KT 10SM CLR 11/04 A3013 RMK AO2
Loading
Personal Weather Stations






























Interactive Weather Map
Tropical Storm Tracking
New forecast layout! Learn more

10-Day Weather Forecast

Advertisements
Track Severe Weather on mobile